Terminal Aerodrome Forecast
Issued by NWS Omaha/Valley, NE

Home | Current Version | Previous Version | Text Only | Print | Product List | Glossary On
Versions: 1 2 3 4 5 6 7 8 9 10 11 12 13 14
000
FTUS43 KOAX 261724
TAFOMA
TAF
KOMA 261724Z 2618/2718 VRB06KT P6SM SCT060
     FM262000 36007KT P6SM SCT070
     FM270000 02007KT P6SM FEW200
     FM270400 VRB03KT P6SM SKC
     FM271400 16008KT P6SM FEW250
     FM271600 16012KT P6SM FEW200=

USA.gov is the U.S. government's official web portal to all federal, state and local government web resources and services.